Flight Track Log - Related Links

Times and Time Zones

All times are in EDT time to prevent confusion due to time zone crossing. See the QLK107D flight status page for this flight to view local times or setup timezone preferences in your user account.

Time Position Orientation Groundspeed Altitude Reporting Facility
EDT Latitude Longitude Course Direction KTS MPH feet Rate Location/Type
Thu 07:33:00 PM -30.4248 153.0320 215° Southwest  Level FlightAware Approximate
Thu 07:33:43 PM -30.3898 153.0670 215° Southwest 129 148 3,600  Level Aus ATC (RADAR)
Thu 07:34:18 PM -30.4172 153.0418 219° Southwest 201 231 5,400 3,000 Climbing Aus ATC (RADAR)
Thu 07:35:03 PM -30.4515 153.0138 215° Southwest 203 234 7,600 2,925 Climbing Aus ATC (RADAR)
Thu 07:35:38 PM -30.4746 152.9899 222° Southwest 194 223 9,300 2,333 Climbing Aus ATC (RADAR)
Thu 07:36:33 PM -30.5002 152.9329 242° Southwest 214 246 11,100 2,057 Climbing Aus ATC (RADAR)
Thu 07:36:48 PM -30.5081 152.9174 239° Southwest 217 250 11,700 1,520 Climbing Aus ATC (RADAR)
Thu 07:37:48 PM -30.5436 152.8494 239° Southwest 254 292 13,000 1,467 Climbing Aus ATC (RADAR)
Thu 07:38:18 PM -30.5630 152.8135 238° Southwest 260 299 13,900 1,636 Climbing Aus ATC (RADAR)
Thu 07:38:43 PM -30.5794 152.7840 237° Southwest 259 298 14,500 1,500 Climbing Aus ATC (RADAR)
Thu 07:39:18 PM -30.6038 152.7425 236° Southwest 265 305 15,400 1,440 Climbing Aus ATC (RADAR)
Thu 07:39:58 PM -30.6328 152.6960 234° Southwest 267 307 16,300 1,360 Climbing Aus ATC (RADAR)
Thu 07:40:33 PM -30.6632 152.6597 226° Southwest 269 310 17,100 1,341 Climbing Aus ATC (RADAR)
Thu 07:41:23 PM -30.7209 152.6234 208° Southwest 281 323 18,200 1,280 Climbing Aus ATC (RADAR)
Thu 07:41:48 PM -30.7483 152.6043 211° Southwest 277 319 18,700 1,149 Climbing Aus ATC (RADAR)
Thu 07:42:57 PM -30.8240 152.5486 212° Southwest 279 321 20,000 1,091 Climbing Aus ATC (RADAR)
Thu 07:43:27 PM -30.8572 152.5251 211° Southwest 281 323 20,500 873 Climbing Aus ATC (RADAR)
Thu 07:43:52 PM -30.8852 152.5049 212° Southwest 284 327 20,800 1,000 Climbing Aus ATC (RADAR)
Thu 07:44:27 PM -30.9238 152.4762 213° Southwest 283 326 21,500 1,014 Climbing Aus ATC (RADAR)
Thu 07:45:03 PM -30.9627 152.4473 212° Southwest 285 328 22,000 640 Climbing Aus ATC (RADAR)
Thu 07:45:42 PM -31.0077 152.4143 212° Southwest 290 334 22,300 202 Climbing Aus ATC (RADAR)
Thu 07:46:32 PM -31.0674 152.3708 212° Southwest 306 352 22,300  Level Aus ATC (RADAR)
Thu 07:46:47 PM -31.0856 152.3572 213° Southwest 310 357 22,300  Level Aus ATC (RADAR)
Thu 07:47:57 PM -31.1738 152.2926 212° Southwest 324 373 22,300  Level Aus ATC (RADAR)
Thu 07:48:27 PM -31.2122 152.2640 213° Southwest 328 377 22,300  Level Aus ATC (RADAR)
Thu 07:48:52 PM -31.2445 152.2403 212° Southwest 331 381 22,300  Level Aus ATC (RADAR)
Thu 07:49:27 PM -31.2899 152.2070 212° Southwest 331 381 22,300  Level Aus ATC (RADAR)
Thu 07:50:12 PM -31.3479 152.1640 212° Southwest 330 380 22,300  Level Aus ATC (RADAR)
Thu 07:50:47 PM -31.3925 152.1309 212° Southwest 327 376 22,300  Level Aus ATC (RADAR)
Thu 07:51:36 PM -31.4562 152.0832 213° Southwest 326 375 22,300  Level Aus ATC (RADAR)
Thu 07:52:01 PM -31.4881 152.0600 212° Southwest 325 374 22,300  Level Aus ATC (RADAR)
Thu 07:53:22 PM -31.5876 151.9852 213° Southwest 318 366 22,300  Level Aus ATC (RADAR)
Thu 07:53:47 PM -31.6195 151.9613 213° Southwest 320 368 22,300  Level Aus ATC (RADAR)
Thu 07:54:22 PM -31.6640 151.9289 212° Southwest 320 368 22,300  Level Aus ATC (RADAR)
Thu 07:55:07 PM -31.7210 151.8864 212° Southwest 319 367 22,300  Level Aus ATC (RADAR)
Thu 07:55:42 PM -31.7654 151.8531 212° Southwest 320 368 22,300  Level Aus ATC (RADAR)
Thu 07:56:32 PM -31.8288 151.8054 213° Southwest 322 371 22,300  Level Aus ATC (RADAR)
Thu 07:56:57 PM -31.8606 151.7821 212° Southwest 322 371 22,300  Level Aus ATC (RADAR)
Thu 07:58:16 PM -31.9617 151.7059 213° Southwest 319 367 22,300  Level Aus ATC (RADAR)
Thu 07:58:41 PM -31.9932 151.6815 213° Southwest 320 368 22,300  Level Aus ATC (RADAR)
Thu 07:59:06 PM -32.0248 151.6578 212° Southwest 319 367 22,300  Level Aus ATC (RADAR)
Thu 07:59:41 PM -32.0690 151.6241 213° Southwest 322 371 22,300  Level Aus ATC (RADAR)
Thu 08:00:26 PM -32.1261 151.5809 213° Southwest 322 371 22,300  Level Aus ATC (RADAR)
Thu 08:01:05 PM -32.1752 151.5431 213° Southwest 310 357 22,300  Level Aus ATC (RADAR)
Thu 08:01:51 PM -32.2257 151.5055 212° Southwest 288 331 22,300  Level Aus ATC (RADAR)
Thu 08:02:16 PM -32.2535 151.4841 213° Southwest 284 327 22,300  Level Aus ATC (RADAR)
Thu 08:03:31 PM -32.3351 151.4227 212° Southwest 274 315 22,300  Level Aus ATC (RADAR)
Thu 08:03:55 PM -32.3617 151.4023 213° Southwest 272 313 22,300  Level Aus ATC (RADAR)
Thu 08:04:30 PM -32.3988 151.3740 213° Southwest 269 310 22,300  Level Aus ATC (RADAR)
Thu 08:05:15 PM -32.4463 151.3381 213° Southwest 268 308 22,300  Level Aus ATC (RADAR)
Thu 08:05:50 PM -32.4826 151.3098 213° Southwest 265 305 22,300  Level Aus ATC (RADAR)
Thu 08:06:35 PM -32.5289 151.2746 213° Southwest 261 300 22,300  Level Aus ATC (RADAR)
Thu 08:07:00 PM -32.5553 151.2563 210° Southwest 260 299 22,300  Level Aus ATC (RADAR)
Thu 08:07:35 PM -32.5993 151.2517 185° South 265 305 22,300  Level Aus ATC (RADAR)
Thu 08:09:10 PM -32.7189 151.2490 181° South 268 308 22,300  Level Aus ATC (RADAR)
Thu 08:09:40 PM -32.7572 151.2469 183° South 265 305 22,300  Level Aus ATC (RADAR)
Thu 08:10:15 PM -32.7996 151.2444 183° South 268 308 22,300  Level Aus ATC (RADAR)
Thu 08:10:59 PM -32.8563 151.2413 183° South 264 304 22,300 -525 Level Aus ATC (RADAR)
Thu 08:11:35 PM -32.8985 151.2383 183° South 267 307 21,600 -1,630 Descending Aus ATC (RADAR)
Thu 08:12:20 PM -32.9517 151.2350 183° South 257 296 20,100 -1,946 Descending Aus ATC (RADAR)
Thu 08:12:49 PM -32.9874 151.2344 181° South 257 296 19,200 -1,515 Descending Aus ATC (RADAR)
Thu 08:13:59 PM -33.0730 151.2306 182° South 258 297 17,600 -1,389 Descending Aus ATC (RADAR)
Thu 08:14:24 PM -33.1029 151.2282 184° South 267 307 17,000 -1,455 Descending Aus ATC (RADAR)
Thu 08:15:05 PM -33.1522 151.2245 184° South 266 306 16,000 -1,412 Descending Aus ATC (RADAR)
Thu 08:15:49 PM -33.2065 151.2217 182° South 261 300 15,000 -1,367 Descending Aus ATC (RADAR)
Thu 08:16:24 PM -33.2496 151.2197 182° South 257 296 14,200 -1,333 Descending Aus ATC (RADAR)
Thu 08:17:19 PM -33.3115 151.2162 183° South 248 285 13,000 -1,371 Descending Aus ATC (RADAR)
Thu 08:17:34 PM -33.3287 151.2151 183° South 249 287 12,600 -1,326 Descending Aus ATC (RADAR)
Thu 08:18:54 PM -33.4186 151.2103 183° South 239 275 10,900 -1,255 Descending Aus ATC (RADAR)
Thu 08:19:24 PM -33.4506 151.2083 183° South 232 267 10,300 -1,418 Descending Aus ATC (RADAR)
Thu 08:19:49 PM -33.4772 151.2070 182° South 231 266 9,600 -1,400 Descending Aus ATC (RADAR)
Thu 08:20:24 PM -33.5157 151.2054 182° South 241 277 8,900 -1,350 Descending Aus ATC (RADAR)
Thu 08:21:09 PM -33.5685 151.2027 182° South 254 292 7,800 -1,429 Descending Aus ATC (RADAR)
Thu 08:21:48 PM -33.6161 151.1996 183° South 249 287 6,900 -1,357 Descending Aus ATC (RADAR)
Thu 08:22:33 PM -33.6653 151.1950 184° South 235 270 5,900 -1,371 Descending Aus ATC (RADAR)
Thu 08:22:58 PM -33.6907 151.1896 190° South 216 249 5,300 -1,457 Descending Aus ATC (RADAR)
Thu 08:23:43 PM -33.7323 151.1811 190° South 196 226 4,200 -1,350 Descending Aus ATC (RADAR)
Thu 08:24:18 PM -33.7621 151.1760 188° South 187 215 3,500 -1,040 Descending Aus ATC (RADAR)
Thu 08:24:58 PM -33.7967 151.1692 189° South 186 214 2,900 -733 Descending Aus ATC (RADAR)
Thu 08:25:48 PM -33.8384 151.1610 189° South 181 208 2,400 -738 Descending Aus ATC (RADAR)
Thu 08:26:03 PM -33.8509 151.1624 175° South 175 201 2,100 -1,080 Descending Aus ATC (RADAR)
Thu 08:26:38 PM -33.8782 151.1699 167° South 172 198 1,500 -900 Descending Aus ATC (RADAR)
Thu 08:27:23 PM -33.9089 151.1779 168° South 141 162 900 -750 Descending Aus ATC (RADAR)
Thu 08:27:58 PM -33.9302 151.1834 168° South 131 151 500 440 Descending Aus ATC (RADAR)
Thu 08:29:12 PM -33.9778 151.1990 165° South 164 189 1,700 1,152 Climbing Aus ATC (RADAR)
Thu 08:29:37 PM -33.9937 151.2185 135° Southeast 197 227 2,400 1,300 Climbing Aus ATC (RADAR)
Thu 08:30:12 PM -34.0208 151.2519 134° Southeast 231 266 3,000 424 Climbing Aus ATC (RADAR)
Thu 08:31:02 PM -34.0556 151.3012 130° Southeast 227 261 3,000  Level Aus ATC (RADAR)
Thu 08:31:37 PM -34.0408 151.3396 65° Northeast 231 266 3,000  Level Aus ATC (RADAR)
Thu 08:32:22 PM -33.9969 151.3558 17° North 222 255 3,000  Level Aus ATC (RADAR)
Thu 08:32:47 PM -33.9711 151.3653 17° North 230 265 3,000  Level Aus ATC (RADAR)
Thu 08:33:52 PM -33.9063 151.3599 356° North 212 244 3,000  Level Aus ATC (RADAR)
Thu 08:34:22 PM -33.8804 151.3442 333° Northwest 207 238 3,000  Level Aus ATC (RADAR)
Thu 08:34:47 PM -33.8633 151.3234 315° West 204 235 3,000  Level Aus ATC (RADAR)
Thu 08:35:22 PM -33.8396 151.2955 316° Northwest 202 232 3,000 -150 Level Aus ATC (RADAR)
Thu 08:36:07 PM -33.8181 151.2565 303° West 181 208 2,800 -375 Descending Aus ATC (RADAR)
Thu 08:36:42 PM -33.8109 151.2268 286° West 159 183 2,500 -635 Descending Aus ATC (RADAR)
Thu 08:37:32 PM -33.8165 151.1839 261° West 150 173 1,900 -480 Descending Aus ATC (RADAR)
Thu 08:37:57 PM -33.8336 151.1748 204° Southwest 162 186 1,900 -360 Level Aus ATC (RADAR)
Thu 08:39:12 PM -33.8895 151.1725 182° South 160 184 1,300 -540 Descending Aus ATC (RADAR)
Thu 08:39:37 PM -33.9057 151.1770 167° South 143 165 1,000 -706 Descending Aus ATC (RADAR)
Thu 08:40:03 PM -33.9202 151.1806 168° South 130 150 700 -656 Descending Aus ATC (RADAR)
Thu 08:40:41 PM -33.9424 151.1866 168° South 119 137 300 -632 Descending Aus ATC (RADAR)

Login

Don't have an account? Register now (free) for customized features, flight alerts, and more!